Hlavní strana
METAR-TAF:

METAR-TAF

Letiště :

Ivalo, Finsko

zeměpisná šířka: 68-37N, zeměpisná délka: 027-25E, výška: 147 m

Aktuální stav počasí

Zpráva byla vytvořena před 16 minutami, v 17:50 UTC
Západní vítr 4 kt
Teplota 13°C
Vlhkost vzduchu 94%
Tlak 1013 hPa
Viditelnost 10 km a více
Žádná oblačnost pod 1500 m, nevyskytují se cumulonimby.

METAR: EFIV 251750Z AUTO 28004KT CAVOK 13/12 Q1013

Čas: 21:06 (18:06 UTC)

Předpověď počasí

Zpráva byla vytvořena před 3 hodinami a 34 minutami, v 14:32 UTC
Předpověď platná od 25 v 15 UTC do 25 v 18 UTC
Západní vítr 7 kt
Viditelnost 10 km a více
Zataženo ve výšce 3000 ft
Dočasný
od 25 v 15 UTC do 25 v 17 UTC
Viditelnost: 7000 m
Oblačno až skoro zataženo ve výšce 1400 ft
dešťové přeháňky

TAF: EFIV 251432Z 2515/2518 27007KT 9999 OVC030 TEMPO 2515/2517 7000 SHRA BKN014

Stav a předpovědi počasí z více než 4 000 letišť (zprávy METAR a TAF).

Červené a žluté tečky na mapě představují dostupné meteorologické stanice.

Když kurzor umístíte na tečku, zobrazí se název stanice.

Pak kliknutím zobrazíte stav a předpověď počasí.

Chcete-li změnit mapu, kliknutím na zelené tlačítko se znaménkem +mapu přiblížíte, kliknutím na zelené tlačítko se znaménkem – mapu oddálíte a kliknutím na zelené šipky přejdete na sousední mapy.


METAR-TAF: